sensor_id;sensor_type;location;lat;lon;timestamp;temperature;humidity
24252;DHT22;12380;51.118;4.176;2023-02-28T00:01:26;2.90;99.90
24252;DHT22;12380;51.118;4.176;2023-02-28T00:03:52;3.00;99.90
24252;DHT22;12380;51.118;4.176;2023-02-28T00:06:19;2.80;99.90
24252;DHT22;12380;51.118;4.176;2023-02-28T00:08:46;2.80;99.90
24252;DHT22;12380;51.118;4.176;2023-02-28T00:11:13;2.90;99.90
24252;DHT22;12380;51.118;4.176;2023-02-28T00:13:44;2.90;99.90
24252;DHT22;12380;51.118;4.176;2023-02-28T00:16:15;3.00;99.90
24252;DHT22;12380;51.118;4.176;2023-02-28T00:18:41;2.80;99.90
24252;DHT22;12380;51.118;4.176;2023-02-28T00:21:07;2.60;99.90
24252;DHT22;12380;51.118;4.176;2023-02-28T00:23:34;2.50;99.90
24252;DHT22;12380;51.118;4.176;2023-02-28T00:26:00;2.70;99.90
24252;DHT22;12380;51.118;4.176;2023-02-28T00:28:26;2.70;99.90
24252;DHT22;12380;51.118;4.176;2023-02-28T00:30:52;2.60;99.90
24252;DHT22;12380;51.118;4.176;2023-02-28T00:33:18;2.60;99.90
24252;DHT22;12380;51.118;4.176;2023-02-28T00:35:43;2.60;99.90
24252;DHT22;12380;51.118;4.176;2023-02-28T00:38:12;2.60;99.90
24252;DHT22;12380;51.118;4.176;2023-02-28T00:40:38;2.50;99.90
24252;DHT22;12380;51.118;4.176;2023-02-28T00:43:04;2.30;99.90
24252;DHT22;12380;51.118;4.176;2023-02-28T00:45:30;2.30;99.90
24252;DHT22;12380;51.118;4.176;2023-02-28T00:47:58;2.20;99.90
24252;DHT22;12380;51.118;4.176;2023-02-28T00:50:24;2.20;99.90
24252;DHT22;12380;51.118;4.176;2023-02-28T00:52:50;2.20;99.90
24252;DHT22;12380;51.118;4.176;2023-02-28T00:55:15;2.50;99.90
24252;DHT22;12380;51.118;4.176;2023-02-28T00:57:43;2.60;99.90
24252;DHT22;12380;51.118;4.176;2023-02-28T01:00:12;2.60;99.90
24252;DHT22;12380;51.118;4.176;2023-02-28T01:02:38;2.80;99.90
24252;DHT22;12380;51.118;4.176;2023-02-28T01:05:06;2.60;99.90
24252;DHT22;12380;51.118;4.176;2023-02-28T01:07:32;2.40;99.90
24252;DHT22;12380;51.118;4.176;2023-02-28T01:09:58;2.40;99.90
24252;DHT22;12380;51.118;4.176;2023-02-28T01:12:28;2.30;99.90
24252;DHT22;12380;51.118;4.176;2023-02-28T01:14:56;2.30;99.90
24252;DHT22;12380;51.118;4.176;2023-02-28T01:17:21;2.10;99.90
24252;DHT22;12380;51.118;4.176;2023-02-28T01:19:47;2.30;99.90
24252;DHT22;12380;51.118;4.176;2023-02-28T01:22:13;2.40;99.90
24252;DHT22;12380;51.118;4.176;2023-02-28T01:24:38;2.30;99.90
24252;DHT22;12380;51.118;4.176;2023-02-28T01:27:04;2.20;99.90
24252;DHT22;12380;51.118;4.176;2023-02-28T01:29:30;2.20;99.90
24252;DHT22;12380;51.118;4.176;2023-02-28T01:31:58;2.10;99.90
24252;DHT22;12380;51.118;4.176;2023-02-28T01:34:26;2.10;99.90
24252;DHT22;12380;51.118;4.176;2023-02-28T01:36:54;2.30;99.90
24252;DHT22;12380;51.118;4.176;2023-02-28T01:39:20;2.30;99.90
24252;DHT22;12380;51.118;4.176;2023-02-28T01:41:45;2.50;99.90
24252;DHT22;12380;51.118;4.176;2023-02-28T01:47:15;2.70;99.90
24252;DHT22;12380;51.118;4.176;2023-02-28T01:49:41;2.70;99.90
24252;DHT22;12380;51.118;4.176;2023-02-28T01:52:08;2.70;99.90
24252;DHT22;12380;51.118;4.176;2023-02-28T01:54:44;2.70;99.90
24252;DHT22;12380;51.118;4.176;2023-02-28T01:57:14;2.70;99.90
24252;DHT22;12380;51.118;4.176;2023-02-28T02:00:02;2.80;99.90
24252;DHT22;12380;51.118;4.176;2023-02-28T02:02:30;2.70;99.90
24252;DHT22;12380;51.118;4.176;2023-02-28T02:05:12;2.50;99.90
24252;DHT22;12380;51.118;4.176;2023-02-28T02:07:41;2.50;99.90
24252;DHT22;12380;51.118;4.176;2023-02-28T02:10:44;2.60;99.90
24252;DHT22;12380;51.118;4.176;2023-02-28T02:41:26;2.60;99.90
24252;DHT22;12380;51.118;4.176;2023-02-28T02:44:10;2.50;99.90
24252;DHT22;12380;51.118;4.176;2023-02-28T02:46:42;2.40;99.90
24252;DHT22;12380;51.118;4.176;2023-02-28T02:49:14;2.30;99.90
24252;DHT22;12380;51.118;4.176;2023-02-28T02:51:41;2.40;99.90
24252;DHT22;12380;51.118;4.176;2023-02-28T02:54:31;2.50;99.90
24252;DHT22;12380;51.118;4.176;2023-02-28T02:57:03;2.40;99.90
24252;DHT22;12380;51.118;4.176;2023-02-28T02:59:30;2.40;99.90
24252;DHT22;12380;51.118;4.176;2023-02-28T03:02:01;2.40;99.90
24252;DHT22;12380;51.118;4.176;2023-02-28T03:04:37;2.30;99.90
24252;DHT22;12380;51.118;4.176;2023-02-28T03:07:07;1.90;99.90
24252;DHT22;12380;51.118;4.176;2023-02-28T03:09:35;1.60;99.90
24252;DHT22;12380;51.118;4.176;2023-02-28T03:12:02;1.50;99.90
24252;DHT22;12380;51.118;4.176;2023-02-28T03:19:59;1.70;99.90
24252;DHT22;12380;51.118;4.176;2023-02-28T03:22:50;1.60;99.90
24252;DHT22;12380;51.118;4.176;2023-02-28T03:26:00;1.50;99.90
24252;DHT22;12380;51.118;4.176;2023-02-28T03:31:07;1.60;99.90
24252;DHT22;12380;51.118;4.176;2023-02-28T03:33:40;1.40;99.90
24252;DHT22;12380;51.118;4.176;2023-02-28T03:36:14;1.70;99.90
24252;DHT22;12380;51.118;4.176;2023-02-28T03:38:44;1.80;99.90
24252;DHT22;12380;51.118;4.176;2023-02-28T03:41:15;1.60;99.90
24252;DHT22;12380;51.118;4.176;2023-02-28T03:43:55;1.70;99.90
24252;DHT22;12380;51.118;4.176;2023-02-28T03:46:25;1.60;99.90
24252;DHT22;12380;51.118;4.176;2023-02-28T03:51:41;1.50;99.90
24252;DHT22;12380;51.118;4.176;2023-02-28T03:54:20;1.70;99.90
24252;DHT22;12380;51.118;4.176;2023-02-28T03:57:02;2.00;99.90
24252;DHT22;12380;51.118;4.176;2023-02-28T03:59:39;2.00;99.90
24252;DHT22;12380;51.118;4.176;2023-02-28T04:02:07;1.90;99.90
24252;DHT22;12380;51.118;4.176;2023-02-28T04:04:34;2.10;99.90
24252;DHT22;12380;51.118;4.176;2023-02-28T04:07:08;2.00;99.90
24252;DHT22;12380;51.118;4.176;2023-02-28T04:09:34;2.10;99.90
24252;DHT22;12380;51.118;4.176;2023-02-28T04:12:00;2.20;99.90
24252;DHT22;12380;51.118;4.176;2023-02-28T04:14:28;2.30;99.90
24252;DHT22;12380;51.118;4.176;2023-02-28T04:16:53;2.30;99.90
24252;DHT22;12380;51.118;4.176;2023-02-28T04:19:19;2.20;99.90
24252;DHT22;12380;51.118;4.176;2023-02-28T04:21:52;2.10;99.90
24252;DHT22;12380;51.118;4.176;2023-02-28T04:24:23;1.90;99.90
24252;DHT22;12380;51.118;4.176;2023-02-28T04:26:52;1.90;99.90
24252;DHT22;12380;51.118;4.176;2023-02-28T04:29:26;1.90;99.90
24252;DHT22;12380;51.118;4.176;2023-02-28T04:31:56;1.90;99.90
24252;DHT22;12380;51.118;4.176;2023-02-28T04:34:26;2.00;99.90
24252;DHT22;12380;51.118;4.176;2023-02-28T04:36:52;2.20;99.90
24252;DHT22;12380;51.118;4.176;2023-02-28T04:39:22;2.30;99.90
24252;DHT22;12380;51.118;4.176;2023-02-28T04:41:48;2.30;99.90
24252;DHT22;12380;51.118;4.176;2023-02-28T04:44:15;2.30;99.90
24252;DHT22;12380;51.118;4.176;2023-02-28T04:46:41;2.70;99.90
24252;DHT22;12380;51.118;4.176;2023-02-28T04:49:11;2.80;99.90
24252;DHT22;12380;51.118;4.176;2023-02-28T04:51:37;2.90;99.90
24252;DHT22;12380;51.118;4.176;2023-02-28T04:54:04;3.10;99.90
24252;DHT22;12380;51.118;4.176;2023-02-28T04:56:32;3.00;99.90
24252;DHT22;12380;51.118;4.176;2023-02-28T04:58:58;2.90;99.90
24252;DHT22;12380;51.118;4.176;2023-02-28T05:01:30;3.00;99.90
24252;DHT22;12380;51.118;4.176;2023-02-28T05:03:59;3.30;99.90
24252;DHT22;12380;51.118;4.176;2023-02-28T05:06:29;3.30;99.90
24252;DHT22;12380;51.118;4.176;2023-02-28T05:08:55;3.20;99.90
24252;DHT22;12380;51.118;4.176;2023-02-28T05:11:31;3.00;99.90
24252;DHT22;12380;51.118;4.176;2023-02-28T05:14:05;2.90;99.90
24252;DHT22;12380;51.118;4.176;2023-02-28T05:16:32;3.10;99.90
24252;DHT22;12380;51.118;4.176;2023-02-28T05:19:00;2.70;99.90
24252;DHT22;12380;51.118;4.176;2023-02-28T05:21:27;2.70;99.90
24252;DHT22;12380;51.118;4.176;2023-02-28T05:23:54;3.00;99.90
24252;DHT22;12380;51.118;4.176;2023-02-28T05:26:20;3.20;99.90
24252;DHT22;12380;51.118;4.176;2023-02-28T05:28:50;3.30;99.90
24252;DHT22;12380;51.118;4.176;2023-02-28T05:31:18;3.40;99.90
24252;DHT22;12380;51.118;4.176;2023-02-28T05:33:44;3.30;99.90
24252;DHT22;12380;51.118;4.176;2023-02-28T05:36:12;3.00;99.90
24252;DHT22;12380;51.118;4.176;2023-02-28T05:38:38;3.00;99.90
24252;DHT22;12380;51.118;4.176;2023-02-28T05:41:08;3.30;99.90
24252;DHT22;12380;51.118;4.176;2023-02-28T05:43:35;3.40;99.90
24252;DHT22;12380;51.118;4.176;2023-02-28T05:46:06;3.30;99.90
24252;DHT22;12380;51.118;4.176;2023-02-28T05:48:35;3.50;99.90
24252;DHT22;12380;51.118;4.176;2023-02-28T05:51:02;3.30;99.90
24252;DHT22;12380;51.118;4.176;2023-02-28T05:53:28;3.20;99.90
24252;DHT22;12380;51.118;4.176;2023-02-28T05:55:56;3.20;99.90
24252;DHT22;12380;51.118;4.176;2023-02-28T05:58:22;3.60;99.90
24252;DHT22;12380;51.118;4.176;2023-02-28T06:00:48;3.50;99.90
24252;DHT22;12380;51.118;4.176;2023-02-28T06:03:17;3.40;99.90
24252;DHT22;12380;51.118;4.176;2023-02-28T06:05:43;3.50;99.90
24252;DHT22;12380;51.118;4.176;2023-02-28T06:08:08;3.70;99.90
24252;DHT22;12380;51.118;4.176;2023-02-28T06:10:34;3.60;99.90
24252;DHT22;12380;51.118;4.176;2023-02-28T06:13:01;3.30;99.90
24252;DHT22;12380;51.118;4.176;2023-02-28T06:15:30;3.40;99.90
24252;DHT22;12380;51.118;4.176;2023-02-28T06:17:56;3.50;99.90
24252;DHT22;12380;51.118;4.176;2023-02-28T06:20:25;3.40;99.90
24252;DHT22;12380;51.118;4.176;2023-02-28T06:22:55;3.20;99.90
24252;DHT22;12380;51.118;4.176;2023-02-28T06:25:24;3.30;99.90
24252;DHT22;12380;51.118;4.176;2023-02-28T06:27:50;3.10;99.90
24252;DHT22;12380;51.118;4.176;2023-02-28T06:30:16;3.20;99.90
24252;DHT22;12380;51.118;4.176;2023-02-28T06:32:42;3.40;99.90
24252;DHT22;12380;51.118;4.176;2023-02-28T06:35:10;3.40;99.90
24252;DHT22;12380;51.118;4.176;2023-02-28T06:37:36;3.70;99.90
24252;DHT22;12380;51.118;4.176;2023-02-28T06:40:02;3.80;99.90
24252;DHT22;12380;51.118;4.176;2023-02-28T06:42:28;3.90;99.90
24252;DHT22;12380;51.118;4.176;2023-02-28T06:44:56;3.80;99.90
24252;DHT22;12380;51.118;4.176;2023-02-28T06:47:22;3.60;99.90
24252;DHT22;12380;51.118;4.176;2023-02-28T06:49:48;3.70;99.90
24252;DHT22;12380;51.118;4.176;2023-02-28T06:52:15;3.70;99.90
24252;DHT22;12380;51.118;4.176;2023-02-28T06:54:41;3.70;99.90
24252;DHT22;12380;51.118;4.176;2023-02-28T06:57:09;3.70;99.90
24252;DHT22;12380;51.118;4.176;2023-02-28T06:59:35;3.60;99.90
24252;DHT22;12380;51.118;4.176;2023-02-28T07:02:01;3.50;99.90
24252;DHT22;12380;51.118;4.176;2023-02-28T07:04:30;3.70;99.90
24252;DHT22;12380;51.118;4.176;2023-02-28T07:06:56;3.60;99.90
24252;DHT22;12380;51.118;4.176;2023-02-28T07:09:22;3.50;99.90
24252;DHT22;12380;51.118;4.176;2023-02-28T07:11:48;3.60;99.90
24252;DHT22;12380;51.118;4.176;2023-02-28T07:14:14;3.60;99.90
24252;DHT22;12380;51.118;4.176;2023-02-28T07:16:40;3.40;99.90
24252;DHT22;12380;51.118;4.176;2023-02-28T07:19:06;3.60;99.90
24252;DHT22;12380;51.118;4.176;2023-02-28T07:21:31;3.80;99.90
24252;DHT22;12380;51.118;4.176;2023-02-28T07:24:00;3.50;99.90
24252;DHT22;12380;51.118;4.176;2023-02-28T07:26:25;3.60;99.90
24252;DHT22;12380;51.118;4.176;2023-02-28T07:28:51;3.90;99.90
24252;DHT22;12380;51.118;4.176;2023-02-28T07:31:19;4.10;99.90
24252;DHT22;12380;51.118;4.176;2023-02-28T07:33:45;4.10;99.90
24252;DHT22;12380;51.118;4.176;2023-02-28T07:36:16;4.10;99.90
24252;DHT22;12380;51.118;4.176;2023-02-28T07:38:47;4.10;99.90
24252;DHT22;12380;51.118;4.176;2023-02-28T07:41:16;3.80;99.90
24252;DHT22;12380;51.118;4.176;2023-02-28T07:43:44;3.70;99.90
24252;DHT22;12380;51.118;4.176;2023-02-28T07:46:13;3.70;99.90
24252;DHT22;12380;51.118;4.176;2023-02-28T07:48:40;4.10;99.90
24252;DHT22;12380;51.118;4.176;2023-02-28T07:51:06;4.40;99.90
24252;DHT22;12380;51.118;4.176;2023-02-28T07:53:35;4.30;99.90
24252;DHT22;12380;51.118;4.176;2023-02-28T07:56:01;4.10;99.90
24252;DHT22;12380;51.118;4.176;2023-02-28T07:58:29;3.90;99.90
24252;DHT22;12380;51.118;4.176;2023-02-28T08:00:54;4.00;99.90
24252;DHT22;12380;51.118;4.176;2023-02-28T08:03:24;4.30;99.90
24252;DHT22;12380;51.118;4.176;2023-02-28T08:05:52;4.40;99.90
24252;DHT22;12380;51.118;4.176;2023-02-28T08:08:20;4.10;99.90
24252;DHT22;12380;51.118;4.176;2023-02-28T08:10:46;4.40;99.90
24252;DHT22;12380;51.118;4.176;2023-02-28T08:13:11;4.40;99.90
24252;DHT22;12380;51.118;4.176;2023-02-28T08:15:37;4.50;99.90
24252;DHT22;12380;51.118;4.176;2023-02-28T08:18:03;4.70;99.90
24252;DHT22;12380;51.118;4.176;2023-02-28T08:20:29;4.60;99.90
24252;DHT22;12380;51.118;4.176;2023-02-28T08:22:54;4.50;99.90
24252;DHT22;12380;51.118;4.176;2023-02-28T08:25:20;4.90;99.90
24252;DHT22;12380;51.118;4.176;2023-02-28T08:27:51;4.70;99.90
24252;DHT22;12380;51.118;4.176;2023-02-28T08:30:20;4.80;99.90
24252;DHT22;12380;51.118;4.176;2023-02-28T08:32:48;4.90;99.90
24252;DHT22;12380;51.118;4.176;2023-02-28T08:35:14;4.70;99.90
24252;DHT22;12380;51.118;4.176;2023-02-28T08:37:40;4.90;99.90
24252;DHT22;12380;51.118;4.176;2023-02-28T08:40:07;5.00;99.90
24252;DHT22;12380;51.118;4.176;2023-02-28T08:42:35;5.20;99.90
24252;DHT22;12380;51.118;4.176;2023-02-28T08:45:01;5.40;99.90
24252;DHT22;12380;51.118;4.176;2023-02-28T08:47:26;5.20;99.90
24252;DHT22;12380;51.118;4.176;2023-02-28T08:49:55;5.00;99.90
24252;DHT22;12380;51.118;4.176;2023-02-28T08:52:21;5.20;99.90
24252;DHT22;12380;51.118;4.176;2023-02-28T08:54:47;5.10;99.90
24252;DHT22;12380;51.118;4.176;2023-02-28T08:57:13;4.90;99.90
24252;DHT22;12380;51.118;4.176;2023-02-28T08:59:41;4.90;99.90
24252;DHT22;12380;51.118;4.176;2023-02-28T09:02:13;4.90;99.90
24252;DHT22;12380;51.118;4.176;2023-02-28T09:04:39;5.20;99.90
24252;DHT22;12380;51.118;4.176;2023-02-28T09:07:05;5.30;99.90
24252;DHT22;12380;51.118;4.176;2023-02-28T09:09:31;5.50;99.90
24252;DHT22;12380;51.118;4.176;2023-02-28T09:11:59;5.70;99.90
24252;DHT22;12380;51.118;4.176;2023-02-28T09:14:27;5.80;99.90
24252;DHT22;12380;51.118;4.176;2023-02-28T09:16:53;6.20;99.90
24252;DHT22;12380;51.118;4.176;2023-02-28T09:19:20;6.20;99.90
24252;DHT22;12380;51.118;4.176;2023-02-28T09:21:46;6.10;99.90
24252;DHT22;12380;51.118;4.176;2023-02-28T09:24:11;6.10;99.90
24252;DHT22;12380;51.118;4.176;2023-02-28T09:26:43;6.20;99.90
24252;DHT22;12380;51.118;4.176;2023-02-28T09:29:09;6.00;99.90
24252;DHT22;12380;51.118;4.176;2023-02-28T09:31:35;5.80;99.90
24252;DHT22;12380;51.118;4.176;2023-02-28T09:34:01;5.80;99.90
24252;DHT22;12380;51.118;4.176;2023-02-28T09:36:28;5.80;99.90
24252;DHT22;12380;51.118;4.176;2023-02-28T09:38:55;6.10;99.90
24252;DHT22;12380;51.118;4.176;2023-02-28T09:41:26;6.10;99.90
24252;DHT22;12380;51.118;4.176;2023-02-28T09:43:57;6.00;99.90
24252;DHT22;12380;51.118;4.176;2023-02-28T09:46:32;6.20;99.90
24252;DHT22;12380;51.118;4.176;2023-02-28T09:49:02;6.20;99.90
24252;DHT22;12380;51.118;4.176;2023-02-28T09:51:37;6.40;99.90
24252;DHT22;12380;51.118;4.176;2023-02-28T09:54:23;7.10;99.90
24252;DHT22;12380;51.118;4.176;2023-02-28T09:57:37;8.00;99.90
24252;DHT22;12380;51.118;4.176;2023-02-28T10:00:01;8.70;99.90
24252;DHT22;12380;51.118;4.176;2023-02-28T10:05:59;9.10;99.90
24252;DHT22;12380;51.118;4.176;2023-02-28T10:11:23;8.80;99.90
24252;DHT22;12380;51.118;4.176;2023-02-28T10:14:00;9.20;99.90
24252;DHT22;12380;51.118;4.176;2023-02-28T10:19:12;9.40;99.90
24252;DHT22;12380;51.118;4.176;2023-02-28T10:22:04;8.40;99.90
24252;DHT22;12380;51.118;4.176;2023-02-28T10:24:35;8.50;99.90
24252;DHT22;12380;51.118;4.176;2023-02-28T10:29:47;10.50;99.90
24252;DHT22;12380;51.118;4.176;2023-02-28T10:32:36;11.40;99.90
24252;DHT22;12380;51.118;4.176;2023-02-28T10:35:20;11.10;99.90
24252;DHT22;12380;51.118;4.176;2023-02-28T10:37:53;10.20;99.90
24252;DHT22;12380;51.118;4.176;2023-02-28T10:43:00;10.30;99.90
24252;DHT22;12380;51.118;4.176;2023-02-28T10:45:33;10.60;99.90
24252;DHT22;12380;51.118;4.176;2023-02-28T10:48:35;10.40;99.90
24252;DHT22;12380;51.118;4.176;2023-02-28T10:51:02;10.70;99.90
24252;DHT22;12380;51.118;4.176;2023-02-28T10:53:55;10.00;99.90
24252;DHT22;12380;51.118;4.176;2023-02-28T10:56:28;10.00;99.90
24252;DHT22;12380;51.118;4.176;2023-02-28T10:59:27;9.70;99.90
24252;DHT22;12380;51.118;4.176;2023-02-28T11:01:55;10.40;99.90
24252;DHT22;12380;51.118;4.176;2023-02-28T11:07:20;11.50;99.90
24252;DHT22;12380;51.118;4.176;2023-02-28T11:09:54;11.90;99.90
24252;DHT22;12380;51.118;4.176;2023-02-28T11:12:39;10.80;99.90
24252;DHT22;12380;51.118;4.176;2023-02-28T11:15:23;10.30;99.90
24252;DHT22;12380;51.118;4.176;2023-02-28T11:20:49;10.30;99.90
24252;DHT22;12380;51.118;4.176;2023-02-28T11:23:16;10.60;99.90
24252;DHT22;12380;51.118;4.176;2023-02-28T11:26:04;10.70;99.90
24252;DHT22;12380;51.118;4.176;2023-02-28T11:28:40;10.70;99.90
24252;DHT22;12380;51.118;4.176;2023-02-28T11:33:50;11.50;99.90
24252;DHT22;12380;51.118;4.176;2023-02-28T11:38:46;11.00;99.90
24252;DHT22;12380;51.118;4.176;2023-02-28T11:52:00;10.70;99.90
24252;DHT22;12380;51.118;4.176;2023-02-28T12:00:15;10.50;99.90
24252;DHT22;12380;51.118;4.176;2023-02-28T12:09:05;10.30;99.90
24252;DHT22;12380;51.118;4.176;2023-02-28T12:25:55;10.80;99.90
24252;DHT22;12380;51.118;4.176;2023-02-28T12:28:34;11.20;99.90
24252;DHT22;12380;51.118;4.176;2023-02-28T12:31:17;11.70;99.90
24252;DHT22;12380;51.118;4.176;2023-02-28T12:33:51;12.00;99.90
24252;DHT22;12380;51.118;4.176;2023-02-28T12:36:19;12.90;99.90
24252;DHT22;12380;51.118;4.176;2023-02-28T12:39:01;12.90;99.90
24252;DHT22;12380;51.118;4.176;2023-02-28T12:41:39;13.10;99.90
24252;DHT22;12380;51.118;4.176;2023-02-28T12:44:17;13.30;99.90
24252;DHT22;12380;51.118;4.176;2023-02-28T12:46:54;12.80;99.90
24252;DHT22;12380;51.118;4.176;2023-02-28T12:51:47;13.40;99.90
24252;DHT22;12380;51.118;4.176;2023-02-28T12:57:04;13.80;99.90
24252;DHT22;12380;51.118;4.176;2023-02-28T12:59:39;14.00;99.90
24252;DHT22;12380;51.118;4.176;2023-02-28T13:10:18;12.30;99.90
24252;DHT22;12380;51.118;4.176;2023-02-28T13:12:52;12.60;99.90
24252;DHT22;12380;51.118;4.176;2023-02-28T13:15:23;11.90;99.90
24252;DHT22;12380;51.118;4.176;2023-02-28T13:17:58;11.40;99.90
24252;DHT22;12380;51.118;4.176;2023-02-28T13:20:34;11.30;99.90
24252;DHT22;12380;51.118;4.176;2023-02-28T13:23:03;11.20;99.90
24252;DHT22;12380;51.118;4.176;2023-02-28T13:28:01;10.10;99.90
24252;DHT22;12380;51.118;4.176;2023-02-28T13:33:35;10.60;99.90
24252;DHT22;12380;51.118;4.176;2023-02-28T13:44:19;10.30;99.90
24252;DHT22;12380;51.118;4.176;2023-02-28T13:49:31;9.50;99.90
24252;DHT22;12380;51.118;4.176;2023-02-28T14:03:36;10.40;99.90
24252;DHT22;12380;51.118;4.176;2023-02-28T14:08:58;10.70;99.90
24252;DHT22;12380;51.118;4.176;2023-02-28T14:11:36;10.50;99.90
24252;DHT22;12380;51.118;4.176;2023-02-28T14:14:06;10.70;99.90
24252;DHT22;12380;51.118;4.176;2023-02-28T14:16:45;10.50;99.90
24252;DHT22;12380;51.118;4.176;2023-02-28T14:30:51;10.00;99.90
24252;DHT22;12380;51.118;4.176;2023-02-28T14:36:14;10.10;99.90
24252;DHT22;12380;51.118;4.176;2023-02-28T14:38:57;9.70;99.90
24252;DHT22;12380;51.118;4.176;2023-02-28T14:41:35;9.20;99.90
24252;DHT22;12380;51.118;4.176;2023-02-28T14:46:43;9.80;99.90
24252;DHT22;12380;51.118;4.176;2023-02-28T14:49:35;9.80;99.90
24252;DHT22;12380;51.118;4.176;2023-02-28T14:52:24;9.40;99.90
24252;DHT22;12380;51.118;4.176;2023-02-28T14:54:55;8.80;99.90
24252;DHT22;12380;51.118;4.176;2023-02-28T14:57:29;8.80;99.90
24252;DHT22;12380;51.118;4.176;2023-02-28T15:00:04;8.90;99.90
24252;DHT22;12380;51.118;4.176;2023-02-28T15:02:36;9.00;99.90
24252;DHT22;12380;51.118;4.176;2023-02-28T15:05:23;9.00;99.90
24252;DHT22;12380;51.118;4.176;2023-02-28T15:10:32;8.40;99.90
24252;DHT22;12380;51.118;4.176;2023-02-28T15:13:02;8.70;99.90
24252;DHT22;12380;51.118;4.176;2023-02-28T15:21:11;9.10;99.90
24252;DHT22;12380;51.118;4.176;2023-02-28T15:23:40;8.90;99.90
24252;DHT22;12380;51.118;4.176;2023-02-28T15:26:12;8.70;99.90
24252;DHT22;12380;51.118;4.176;2023-02-28T15:28:39;8.70;99.90
24252;DHT22;12380;51.118;4.176;2023-02-28T15:31:20;8.70;99.90
24252;DHT22;12380;51.118;4.176;2023-02-28T15:33:58;8.60;99.90
24252;DHT22;12380;51.118;4.176;2023-02-28T15:36:32;8.60;99.90
24252;DHT22;12380;51.118;4.176;2023-02-28T15:39:00;8.40;99.90
24252;DHT22;12380;51.118;4.176;2023-02-28T15:41:35;8.20;99.90
24252;DHT22;12380;51.118;4.176;2023-02-28T15:49:28;8.40;99.90
24252;DHT22;12380;51.118;4.176;2023-02-28T15:52:00;8.60;99.90
24252;DHT22;12380;51.118;4.176;2023-02-28T15:54:33;8.30;99.90
24252;DHT22;12380;51.118;4.176;2023-02-28T15:57:07;8.60;99.90
24252;DHT22;12380;51.118;4.176;2023-02-28T15:59:36;8.40;99.90
24252;DHT22;12380;51.118;4.176;2023-02-28T16:02:22;8.00;99.90
24252;DHT22;12380;51.118;4.176;2023-02-28T16:04:56;7.90;99.90
24252;DHT22;12380;51.118;4.176;2023-02-28T16:07:24;7.90;99.90
24252;DHT22;12380;51.118;4.176;2023-02-28T16:09:50;7.70;99.90
24252;DHT22;12380;51.118;4.176;2023-02-28T16:12:16;7.60;99.90
24252;DHT22;12380;51.118;4.176;2023-02-28T16:14:45;7.40;99.90
24252;DHT22;12380;51.118;4.176;2023-02-28T16:17:30;7.20;99.90
24252;DHT22;12380;51.118;4.176;2023-02-28T16:19:58;7.20;99.90
24252;DHT22;12380;51.118;4.176;2023-02-28T16:22:24;7.10;99.90
24252;DHT22;12380;51.118;4.176;2023-02-28T16:24:50;6.70;99.90
24252;DHT22;12380;51.118;4.176;2023-02-28T16:27:33;6.80;99.90
24252;DHT22;12380;51.118;4.176;2023-02-28T16:30:01;6.90;99.90
24252;DHT22;12380;51.118;4.176;2023-02-28T16:32:27;6.70;99.90
24252;DHT22;12380;51.118;4.176;2023-02-28T16:34:53;6.50;99.90
24252;DHT22;12380;51.118;4.176;2023-02-28T16:37:21;6.60;99.90
24252;DHT22;12380;51.118;4.176;2023-02-28T16:39:46;6.70;99.90
24252;DHT22;12380;51.118;4.176;2023-02-28T16:42:23;6.60;99.90
24252;DHT22;12380;51.118;4.176;2023-02-28T16:44:53;6.10;99.90
24252;DHT22;12380;51.118;4.176;2023-02-28T16:47:19;5.90;99.90
24252;DHT22;12380;51.118;4.176;2023-02-28T16:49:45;5.70;99.90
24252;DHT22;12380;51.118;4.176;2023-02-28T16:52:13;5.60;99.90
24252;DHT22;12380;51.118;4.176;2023-02-28T16:54:40;5.60;99.90
24252;DHT22;12380;51.118;4.176;2023-02-28T16:57:21;5.70;99.90
24252;DHT22;12380;51.118;4.176;2023-02-28T16:59:48;5.80;99.90
24252;DHT22;12380;51.118;4.176;2023-02-28T17:02:17;5.60;99.90
24252;DHT22;12380;51.118;4.176;2023-02-28T17:04:44;5.60;99.90
24252;DHT22;12380;51.118;4.176;2023-02-28T17:07:14;5.50;99.90
24252;DHT22;12380;51.118;4.176;2023-02-28T17:09:43;5.60;99.90
24252;DHT22;12380;51.118;4.176;2023-02-28T17:12:09;5.60;99.90
24252;DHT22;12380;51.118;4.176;2023-02-28T17:14:36;5.50;99.90
24252;DHT22;12380;51.118;4.176;2023-02-28T17:17:04;5.50;99.90
24252;DHT22;12380;51.118;4.176;2023-02-28T17:19:30;5.30;99.90
24252;DHT22;12380;51.118;4.176;2023-02-28T17:21:58;5.50;99.90
24252;DHT22;12380;51.118;4.176;2023-02-28T17:24:24;5.40;99.90
24252;DHT22;12380;51.118;4.176;2023-02-28T17:26:50;5.20;99.90
24252;DHT22;12380;51.118;4.176;2023-02-28T17:29:20;5.10;99.90
24252;DHT22;12380;51.118;4.176;2023-02-28T17:31:46;5.10;99.90
24252;DHT22;12380;51.118;4.176;2023-02-28T17:34:13;5.00;99.90
24252;DHT22;12380;51.118;4.176;2023-02-28T17:36:47;5.10;99.90
24252;DHT22;12380;51.118;4.176;2023-02-28T17:39:14;5.10;99.90
24252;DHT22;12380;51.118;4.176;2023-02-28T17:41:41;5.20;99.90
24252;DHT22;12380;51.118;4.176;2023-02-28T17:44:08;5.00;99.90
24252;DHT22;12380;51.118;4.176;2023-02-28T17:46:37;5.10;99.90
24252;DHT22;12380;51.118;4.176;2023-02-28T17:49:03;4.90;99.90
24252;DHT22;12380;51.118;4.176;2023-02-28T17:51:29;4.80;99.90
24252;DHT22;12380;51.118;4.176;2023-02-28T17:53:54;4.80;99.90
24252;DHT22;12380;51.118;4.176;2023-02-28T17:56:24;4.70;99.90
24252;DHT22;12380;51.118;4.176;2023-02-28T17:58:54;4.50;99.90
24252;DHT22;12380;51.118;4.176;2023-02-28T18:01:22;4.60;99.90
24252;DHT22;12380;51.118;4.176;2023-02-28T18:03:50;4.50;99.90
24252;DHT22;12380;51.118;4.176;2023-02-28T18:08:47;4.50;99.90
24252;DHT22;12380;51.118;4.176;2023-02-28T18:11:14;4.80;99.90
24252;DHT22;12380;51.118;4.176;2023-02-28T18:13:47;4.90;99.90
24252;DHT22;12380;51.118;4.176;2023-02-28T18:16:14;5.00;99.90
24252;DHT22;12380;51.118;4.176;2023-02-28T18:18:40;5.20;99.90
24252;DHT22;12380;51.118;4.176;2023-02-28T18:21:08;5.00;99.90
24252;DHT22;12380;51.118;4.176;2023-02-28T18:23:34;4.80;99.90
24252;DHT22;12380;51.118;4.176;2023-02-28T18:26:00;4.70;99.90
24252;DHT22;12380;51.118;4.176;2023-02-28T18:28:26;4.60;99.90
24252;DHT22;12380;51.118;4.176;2023-02-28T18:30:52;4.90;99.90
24252;DHT22;12380;51.118;4.176;2023-02-28T18:33:18;4.90;99.90
24252;DHT22;12380;51.118;4.176;2023-02-28T18:35:44;4.60;99.90
24252;DHT22;12380;51.118;4.176;2023-02-28T18:38:13;4.40;99.90
24252;DHT22;12380;51.118;4.176;2023-02-28T18:40:40;4.30;99.90
24252;DHT22;12380;51.118;4.176;2023-02-28T18:43:07;4.30;99.90
24252;DHT22;12380;51.118;4.176;2023-02-28T18:45:37;4.30;99.90
24252;DHT22;12380;51.118;4.176;2023-02-28T18:48:06;4.50;99.90
24252;DHT22;12380;51.118;4.176;2023-02-28T18:50:32;4.80;99.90
24252;DHT22;12380;51.118;4.176;2023-02-28T18:52:57;4.90;99.90
24252;DHT22;12380;51.118;4.176;2023-02-28T18:55:27;4.90;99.90
24252;DHT22;12380;51.118;4.176;2023-02-28T18:57:55;4.70;99.90
24252;DHT22;12380;51.118;4.176;2023-02-28T19:00:22;4.60;99.90
24252;DHT22;12380;51.118;4.176;2023-02-28T19:02:52;4.80;99.90
24252;DHT22;12380;51.118;4.176;2023-02-28T19:05:18;4.40;99.90